Terminal Aerodrome Forecast
Issued by NWS Jackson, MS

Home | Current Version | Previous Version | Text Only | Print | Product List | Glossary On
Versions: 1 2 3 4 5 6 7 8 9 10 11 12 13 14 15
000
FTUS44 KJAN 281139
TAFGWO
TAF
KGWO 281139Z 2812/2912 02006KT P6SM BKN120
     FM281400 03010KT 5SM -SHRA BR OVC015
     FM281700 03010G15KT P6SM -SHRA OVC025
     FM282000 04011G18KT P6SM VCSH OVC050
     FM290800 36009KT P6SM OVC100=

USA.gov is the U.S. government's official web portal to all federal, state and local government web resources and services.